Time;durP1;ratioP1;P1;durP2;ratioP2;P2;SDS_P1;SDS_P2;PMS_P1;PMS_P2;Temp;Humidity;BMP_temperature;BMP_pressure;BME280_temperature;BME280_humidity;BME280_pressure;Samples;Min_cycle;Max_cycle;Signal;HPM_P1;HPM_P2
2022/01/10 00:01:46;;;;;;;10.77;8.02;;;3.80;99.90;;;;;;4976420;28;20222;-78
2022/01/10 00:04:11;;;;;;;17.35;8.10;;;3.70;99.90;;;;;;4976447;28;20228;-79
2022/01/10 00:06:37;;;;;;;20.58;8.93;;;3.60;99.90;;;;;;4976250;28;20201;-78
2022/01/10 00:09:04;;;;;;;24.27;9.95;;;3.50;99.90;;;;;;4976208;28;20174;-80
2022/01/10 00:11:29;;;;;;;26.25;8.63;;;3.60;99.90;;;;;;4975811;28;20169;-78
2022/01/10 00:13:55;;;;;;;13.07;8.65;;;3.60;99.90;;;;;;4990736;28;20694;-78
2022/01/10 00:16:21;;;;;;;24.15;9.20;;;3.60;99.90;;;;;;4975754;28;20555;-78
2022/01/10 00:18:47;;;;;;;17.63;8.82;;;3.50;99.90;;;;;;4975750;28;20173;-78
2022/01/10 00:21:12;;;;;;;15.55;9.27;;;3.60;99.90;;;;;;4975541;28;20601;-78
2022/01/10 00:23:38;;;;;;;16.40;8.85;;;3.70;99.90;;;;;;4975840;28;20590;-78
2022/01/10 00:26:03;;;;;;;18.40;8.88;;;3.60;99.90;;;;;;4975404;28;20170;-78
2022/01/10 00:28:29;;;;;;;12.82;8.35;;;3.70;99.90;;;;;;4975716;28;20251;-78
2022/01/10 00:30:55;;;;;;;22.65;10.23;;;3.70;99.90;;;;;;4975588;28;20185;-78
2022/01/10 00:33:20;;;;;;;19.60;9.35;;;3.70;99.90;;;;;;4975823;28;20249;-78
2022/01/10 00:35:47;;;;;;;13.57;9.52;;;3.60;99.90;;;;;;4975718;28;20536;-78
2022/01/10 00:38:12;;;;;;;14.52;9.18;;;3.50;99.90;;;;;;4990583;28;20182;-79
2022/01/10 00:40:39;;;;;;;12.68;9.00;;;3.40;99.90;;;;;;4975203;28;20201;-80
2022/01/10 00:43:05;;;;;;;20.13;8.77;;;3.50;99.90;;;;;;4975478;28;20166;-79
2022/01/10 00:45:31;;;;;;;16.70;8.98;;;3.40;99.90;;;;;;4975214;28;20641;-78
2022/01/10 00:47:59;;;;;;;15.02;8.27;;;3.60;99.90;;;;;;4975515;28;20968;-79
2022/01/10 00:50:26;;;;;;;14.77;8.80;;;3.40;99.90;;;;;;4975260;28;20186;-78
2022/01/10 00:52:53;;;;;;;28.00;10.05;;;3.30;99.90;;;;;;4975286;28;20166;-80
2022/01/10 00:55:19;;;;;;;12.82;7.85;;;3.20;99.90;;;;;;4975200;28;20177;-77
2022/01/10 00:57:45;;;;;;;18.00;8.07;;;3.20;99.90;;;;;;4974998;28;20166;-77
2022/01/10 01:00:13;;;;;;;11.90;8.75;;;3.20;99.90;;;;;;4974955;28;20650;-79
2022/01/10 01:02:39;;;;;;;14.65;8.50;;;3.30;99.90;;;;;;4974976;28;20662;-78
2022/01/10 01:05:08;;;;;;;13.80;9.15;;;3.30;99.90;;;;;;4974968;28;20528;-78
2022/01/10 01:07:34;;;;;;;13.57;8.20;;;3.40;99.90;;;;;;4975092;28;20210;-78
2022/01/10 01:10:24;;;;;;;14.05;7.95;;;3.30;99.90;;;;;;4974997;28;20268;-78
2022/01/10 01:15:25;;;;;;;16.27;9.55;;;3.40;99.90;;;;;;4975046;28;20180;-78
2022/01/10 01:26:01;;;;;;;18.13;8.02;;;3.60;99.90;;;;;;4974661;28;20216;-77
2022/01/10 01:28:28;;;;;;;17.27;9.88;;;3.50;99.90;;;;;;4974703;28;20197;-79
2022/01/10 01:30:54;;;;;;;24.38;9.93;;;3.50;99.90;;;;;;4974451;28;20194;-79
2022/01/10 01:33:20;;;;;;;16.65;8.48;;;3.40;99.90;;;;;;4974697;28;20174;-79
2022/01/10 01:35:47;;;;;;;12.00;8.60;;;3.30;99.90;;;;;;4974571;28;20682;-78
2022/01/10 01:38:13;;;;;;;20.65;10.00;;;3.20;99.90;;;;;;4974481;28;20531;-79
2022/01/10 01:40:46;;;;;;;16.55;8.18;;;3.40;99.90;;;;;;4973904;28;20224;-79
2022/01/10 01:43:11;;;;;;;13.98;8.80;;;3.40;99.90;;;;;;4974375;28;20192;-79
2022/01/10 01:45:43;;;;;;;10.02;8.48;;;3.30;99.90;;;;;;4989340;28;20232;-78
2022/01/10 01:48:09;;;;;;;11.60;8.63;;;3.30;99.90;;;;;;4974093;28;20329;-79
2022/01/10 01:50:35;;;;;;;56.28;27.42;;;3.30;99.90;;;;;;4974303;28;20190;-80
2022/01/10 01:53:03;;;;;;;22.52;14.10;;;3.40;99.90;;;;;;4974364;28;20260;-80
2022/01/10 01:55:28;;;;;;;24.73;13.52;;;3.70;99.90;;;;;;4973976;28;20213;-79
2022/01/10 01:57:55;;;;;;;13.35;9.25;;;3.50;99.90;;;;;;4988614;28;20252;-78
2022/01/10 02:00:22;;;;;;;17.90;9.32;;;3.40;99.90;;;;;;4974307;28;20265;-78
2022/01/10 02:02:52;;;;;;;14.10;9.10;;;3.40;99.90;;;;;;4973969;28;20178;-78
2022/01/10 02:05:18;;;;;;;13.35;9.32;;;3.40;99.90;;;;;;4973953;28;20177;-79
2022/01/10 02:07:44;;;;;;;19.80;9.13;;;3.50;99.90;;;;;;4974121;28;20280;-79
2022/01/10 02:10:11;;;;;;;19.98;10.57;;;3.40;99.90;;;;;;4973937;28;20237;-78
2022/01/10 02:12:36;;;;;;;20.05;8.75;;;3.20;99.90;;;;;;4988963;28;20204;-78
2022/01/10 02:15:03;;;;;;;13.40;8.68;;;3.10;99.90;;;;;;4974027;28;20619;-79
2022/01/10 02:17:37;;;;;;;14.73;8.63;;;3.00;99.90;;;;;;4973812;28;20221;-78
2022/01/10 02:20:05;;;;;;;13.30;9.52;;;2.80;99.90;;;;;;4973898;28;20182;-81
2022/01/10 02:22:30;;;;;;;11.18;8.95;;;2.90;99.90;;;;;;4973981;28;20260;-78
2022/01/10 02:24:56;;;;;;;16.77;8.35;;;2.80;99.90;;;;;;4974016;28;20200;-80
2022/01/10 02:27:23;;;;;;;16.20;8.85;;;2.80;99.90;;;;;;4973555;28;20738;-78
2022/01/10 02:29:49;;;;;;;14.57;7.85;;;2.90;99.90;;;;;;4973858;28;20194;-79
2022/01/10 02:32:16;;;;;;;13.68;7.90;;;3.10;99.90;;;;;;4973762;28;20637;-78
2022/01/10 02:34:42;;;;;;;15.98;8.30;;;3.20;99.90;;;;;;4973346;28;20172;-80
2022/01/10 02:37:07;;;;;;;16.52;7.45;;;3.50;99.90;;;;;;4973688;28;20249;-78
2022/01/10 02:39:33;;;;;;;9.60;8.30;;;3.20;99.90;;;;;;4973751;28;20678;-78
2022/01/10 02:41:59;;;;;;;11.35;7.47;;;3.10;99.90;;;;;;4973494;28;20174;-78
2022/01/10 02:44:25;;;;;;;8.73;7.80;;;3.00;99.90;;;;;;4973665;28;20162;-78
2022/01/10 02:46:50;;;;;;;13.70;8.48;;;3.10;99.90;;;;;;4973459;28;20233;-80
2022/01/10 02:49:27;;;;;;;16.73;8.15;;;3.10;99.90;;;;;;4988525;28;20256;-78
2022/01/10 02:51:55;;;;;;;15.02;7.95;;;3.00;99.90;;;;;;4973631;28;20618;-79
2022/01/10 02:54:25;;;;;;;18.13;8.55;;;3.00;99.90;;;;;;4973543;28;20204;-78
2022/01/10 02:56:56;;;;;;;14.13;8.13;;;2.90;99.90;;;;;;4973446;28;20177;-80
2022/01/10 02:59:23;;;;;;;14.82;8.65;;;2.80;99.90;;;;;;4973481;28;20190;-77
2022/01/10 03:01:50;;;;;;;14.15;8.27;;;2.70;99.90;;;;;;4973592;28;20194;-78
2022/01/10 03:04:16;;;;;;;12.65;8.00;;;2.80;99.90;;;;;;4973554;28;20252;-78
2022/01/10 03:06:42;;;;;;;16.75;8.10;;;2.70;99.90;;;;;;4973460;28;20333;-78
2022/01/10 03:09:10;;;;;;;15.98;8.27;;;2.80;99.90;;;;;;4974314;28;20158;-80
2022/01/10 03:11:38;;;;;;;15.02;8.70;;;3.00;99.90;;;;;;4976488;28;20166;-80
2022/01/10 03:14:04;;;;;;;16.15;7.95;;;3.10;99.90;;;;;;4976973;28;20253;-80
2022/01/10 03:16:30;;;;;;;20.77;9.00;;;3.20;99.90;;;;;;4976900;28;20623;-77
2022/01/10 03:18:56;;;;;;;21.55;8.35;;;3.10;99.90;;;;;;4976984;28;20177;-78
2022/01/10 03:21:21;;;;;;;14.07;7.18;;;3.00;99.90;;;;;;4976501;28;20194;-78
2022/01/10 03:23:48;;;;;;;14.43;8.18;;;3.10;99.90;;;;;;4977175;28;20185;-78
2022/01/10 03:26:13;;;;;;;17.13;9.02;;;3.20;99.90;;;;;;4976895;28;20749;-78
2022/01/10 03:28:39;;;;;;;16.38;8.18;;;3.20;99.90;;;;;;4976757;28;20210;-78
2022/01/10 03:31:04;;;;;;;24.02;9.52;;;3.00;99.90;;;;;;4977158;28;20261;-78
2022/01/10 03:33:30;;;;;;;14.30;9.70;;;3.00;99.90;;;;;;4976606;28;20166;-78
2022/01/10 03:35:56;;;;;;;12.73;8.70;;;2.90;99.90;;;;;;4976386;28;20174;-79
2022/01/10 03:38:22;;;;;;;18.10;7.95;;;2.80;99.90;;;;;;4976461;28;20165;-78
2022/01/10 03:40:47;;;;;;;16.35;9.13;;;2.90;99.90;;;;;;4976598;28;20197;-79
2022/01/10 03:43:13;;;;;;;15.63;8.25;;;2.80;99.90;;;;;;4976466;28;20560;-77
2022/01/10 03:45:39;;;;;;;11.00;8.20;;;2.80;99.90;;;;;;4976359;28;20252;-78
2022/01/10 03:48:05;;;;;;;14.77;7.50;;;2.80;99.90;;;;;;4975779;28;20214;-79
2022/01/10 03:50:30;;;;;;;10.52;7.95;;;2.70;99.90;;;;;;4976022;28;20197;-78
2022/01/10 03:52:56;;;;;;;11.15;7.88;;;2.60;99.90;;;;;;4991064;28;20177;-79
2022/01/10 03:55:22;;;;;;;18.63;8.30;;;2.70;99.90;;;;;;4975884;28;20197;-79
2022/01/10 03:57:47;;;;;;;10.25;7.03;;;2.60;99.90;;;;;;4975935;28;20241;-78
2022/01/10 04:00:14;;;;;;;14.38;9.15;;;2.70;99.90;;;;;;4976167;28;20333;-78
2022/01/10 04:02:42;;;;;;;23.80;8.85;;;3.00;99.90;;;;;;4975915;28;20542;-78
2022/01/10 04:05:08;;;;;;;13.93;8.20;;;3.30;99.90;;;;;;4975831;28;20619;-78
2022/01/10 04:07:34;;;;;;;13.63;9.27;;;3.30;99.90;;;;;;4990859;28;20214;-78
2022/01/10 04:09:59;;;;;;;22.83;9.98;;;3.00;99.90;;;;;;4975963;28;20184;-78
2022/01/10 04:12:25;;;;;;;12.07;7.45;;;2.80;99.90;;;;;;4975695;28;20552;-78
2022/01/10 04:14:51;;;;;;;17.33;8.48;;;2.90;99.90;;;;;;4975756;28;20166;-77
2022/01/10 04:17:17;;;;;;;15.05;9.48;;;2.80;99.90;;;;;;4976085;28;20174;-79
2022/01/10 04:19:42;;;;;;;13.93;9.02;;;2.70;99.90;;;;;;4990556;28;20240;-80
2022/01/10 04:22:08;;;;;;;21.35;7.82;;;2.70;99.90;;;;;;4975014;28;21031;-78
2022/01/10 04:24:33;;;;;;;13.60;8.30;;;2.90;99.90;;;;;;4975671;28;20174;-79
2022/01/10 04:26:59;;;;;;;9.70;8.30;;;2.90;99.90;;;;;;4975667;28;20215;-78
2022/01/10 04:29:24;;;;;;;17.90;8.88;;;2.80;99.90;;;;;;4975732;28;20197;-78
2022/01/10 04:31:50;;;;;;;9.35;7.28;;;2.80;99.90;;;;;;4975713;28;20643;-80
2022/01/10 04:34:16;;;;;;;19.23;8.93;;;2.70;99.90;;;;;;4975178;28;20181;-80
2022/01/10 04:36:43;;;;;;;16.17;8.23;;;2.90;99.90;;;;;;4975357;28;20189;-80
2022/01/10 04:39:09;;;;;;;17.25;8.90;;;2.80;99.90;;;;;;4975246;28;20216;-79
2022/01/10 04:41:37;;;;;;;8.50;7.35;;;3.00;99.90;;;;;;4975371;28;20178;-79
2022/01/10 04:44:03;;;;;;;12.02;7.45;;;2.90;99.90;;;;;;4990301;28;20178;-78
2022/01/10 04:46:29;;;;;;;16.88;8.93;;;3.00;99.90;;;;;;4974953;28;20309;-78
2022/01/10 04:48:54;;;;;;;14.32;8.65;;;2.90;99.90;;;;;;4975352;28;20619;-80
2022/01/10 04:51:20;;;;;;;13.93;8.45;;;2.80;99.90;;;;;;4990230;28;20198;-78
2022/01/10 04:53:48;;;;;;;13.25;7.53;;;2.70;99.90;;;;;;4975406;28;20579;-78
2022/01/10 04:56:16;;;;;;;12.23;8.45;;;2.80;99.90;;;;;;4975253;28;20595;-78
2022/01/10 04:58:42;;;;;;;15.70;9.45;;;3.00;99.90;;;;;;4975121;28;20221;-79
2022/01/10 05:01:09;;;;;;;13.70;8.85;;;3.30;99.90;;;;;;4975043;28;20692;-79
2022/01/10 05:03:35;;;;;;;10.20;8.88;;;3.10;99.90;;;;;;4974799;28;20170;-78
2022/01/10 05:06:01;;;;;;;13.60;9.00;;;3.10;99.90;;;;;;4974644;28;20249;-78
2022/01/10 05:08:27;;;;;;;11.57;9.20;;;3.10;99.90;;;;;;4974419;28;20217;-79
2022/01/10 05:10:53;;;;;;;27.67;11.18;;;3.00;99.90;;;;;;4974465;28;20197;-78
2022/01/10 05:13:20;;;;;;;20.27;9.98;;;3.30;99.90;;;;;;4974608;28;20261;-79
2022/01/10 05:15:47;;;;;;;27.00;10.63;;;3.40;99.90;;;;;;4974830;28;20169;-81
2022/01/10 05:18:17;;;;;;;17.02;10.77;;;3.40;99.90;;;;;;4989642;28;20547;-78
2022/01/10 05:20:43;;;;;;;16.13;10.20;;;3.10;99.90;;;;;;4974175;28;20225;-78
2022/01/10 05:23:09;;;;;;;17.90;10.48;;;3.20;99.90;;;;;;4974529;28;20177;-78
2022/01/10 05:25:40;;;;;;;23.88;10.95;;;3.20;99.90;;;;;;4974425;28;20162;-78
2022/01/10 05:28:07;;;;;;;26.02;10.52;;;3.40;99.90;;;;;;4974651;28;20252;-78
2022/01/10 05:30:33;;;;;;;18.02;12.60;;;3.30;99.90;;;;;;4974025;28;20634;-79
2022/01/10 05:32:58;;;;;;;17.48;9.98;;;3.60;99.90;;;;;;4987559;28;20269;-78
2022/01/10 05:35:24;;;;;;;27.00;10.38;;;3.70;99.90;;;;;;4974018;28;20205;-79
2022/01/10 05:37:50;;;;;;;20.88;11.63;;;3.60;99.90;;;;;;4974153;28;20654;-78
2022/01/10 05:40:15;;;;;;;28.17;11.73;;;3.50;99.90;;;;;;4988844;28;20193;-78
2022/01/10 05:42:41;;;;;;;20.45;11.13;;;3.60;99.90;;;;;;4973922;28;20575;-78
2022/01/10 05:45:07;;;;;;;20.92;10.65;;;3.40;99.90;;;;;;4974006;28;20177;-78
2022/01/10 05:47:41;;;;;;;14.45;10.23;;;3.50;99.90;;;;;;4973887;28;20213;-79
2022/01/10 05:50:08;;;;;;;16.05;11.02;;;3.50;99.90;;;;;;4973769;28;20209;-81
2022/01/10 05:52:33;;;;;;;28.73;11.60;;;3.60;99.90;;;;;;4973599;28;20260;-79
2022/01/10 05:54:59;;;;;;;19.92;10.82;;;3.60;99.90;;;;;;4973661;28;20221;-81
2022/01/10 05:57:25;;;;;;;25.80;12.50;;;3.50;99.90;;;;;;4973292;28;20181;-79
2022/01/10 05:59:51;;;;;;;21.45;11.63;;;3.30;99.90;;;;;;4988507;28;20186;-78
2022/01/10 06:02:16;;;;;;;28.05;11.40;;;3.40;99.90;;;;;;4973635;28;20273;-78
2022/01/10 06:04:42;;;;;;;23.75;11.98;;;3.30;99.90;;;;;;4973801;28;20213;-78
2022/01/10 06:07:07;;;;;;;27.70;12.15;;;3.20;99.90;;;;;;4973569;28;20213;-77
2022/01/10 06:09:33;;;;;;;30.45;13.73;;;3.20;99.90;;;;;;4988431;28;20202;-79
2022/01/10 06:11:59;;;;;;;22.92;12.40;;;3.30;99.90;;;;;;4973568;28;20181;-78
2022/01/10 06:14:24;;;;;;;28.48;12.95;;;3.20;99.90;;;;;;4973791;28;20630;-78
2022/01/10 06:16:50;;;;;;;32.25;13.20;;;3.20;99.90;;;;;;4973446;28;20265;-79
2022/01/10 06:19:15;;;;;;;24.80;12.13;;;3.00;99.90;;;;;;4973385;28;20206;-78
2022/01/10 06:21:41;;;;;;;33.90;12.57;;;2.90;99.90;;;;;;4972884;28;20504;-78
2022/01/10 06:24:07;;;;;;;28.45;13.30;;;2.70;99.90;;;;;;4972965;28;20166;-78
2022/01/10 06:26:33;;;;;;;26.30;12.77;;;2.70;99.90;;;;;;4973274;28;20309;-78
2022/01/10 06:28:58;;;;;;;24.52;12.02;;;2.80;99.90;;;;;;4973350;28;20256;-80
2022/01/10 06:31:24;;;;;;;26.25;12.10;;;2.70;99.90;;;;;;4972900;28;20185;-77
2022/01/10 06:33:49;;;;;;;24.40;11.20;;;2.70;99.90;;;;;;4973001;28;20283;-80
2022/01/10 06:36:15;;;;;;;25.13;12.73;;;2.90;99.90;;;;;;4972795;28;20173;-78
2022/01/10 06:38:41;;;;;;;24.25;11.30;;;3.00;99.90;;;;;;4973060;28;20166;-78
2022/01/10 06:41:06;;;;;;;25.77;12.07;;;2.90;99.90;;;;;;4973178;28;20247;-80
2022/01/10 06:43:32;;;;;;;25.23;11.40;;;3.00;99.90;;;;;;4973288;28;20216;-79
2022/01/10 06:45:58;;;;;;;17.05;10.25;;;3.20;99.90;;;;;;4977056;28;20504;-79
2022/01/10 06:48:24;;;;;;;21.67;10.73;;;3.20;99.90;;;;;;4977083;28;20564;-78
2022/01/10 06:50:49;;;;;;;19.90;11.75;;;3.10;99.90;;;;;;4991854;28;20196;-78
2022/01/10 06:53:16;;;;;;;19.85;10.27;;;3.30;99.90;;;;;;4976928;28;20170;-78
2022/01/10 06:55:42;;;;;;;21.67;10.25;;;3.00;99.90;;;;;;4976620;28;20166;-79
2022/01/10 06:58:08;;;;;;;19.27;10.82;;;2.90;99.90;;;;;;4976412;28;20236;-79
2022/01/10 07:00:34;;;;;;;16.98;9.43;;;2.90;99.90;;;;;;4976546;28;20197;-79
2022/01/10 07:02:59;;;;;;;13.98;8.75;;;2.80;99.90;;;;;;4976976;28;20589;-80
2022/01/10 07:05:25;;;;;;;17.60;9.95;;;2.40;99.90;;;;;;4976666;28;20173;-80
2022/01/10 07:07:51;;;;;;;18.70;10.20;;;2.50;99.90;;;;;;4976509;28;20670;-79
2022/01/10 07:10:16;;;;;;;12.05;9.00;;;2.50;99.90;;;;;;4976010;28;20208;-79
2022/01/10 07:12:42;;;;;;;17.00;10.35;;;2.50;99.90;;;;;;4990872;28;20170;-80
2022/01/10 07:15:08;;;;;;;14.40;10.15;;;2.40;99.90;;;;;;4991135;28;20523;-80
2022/01/10 07:17:33;;;;;;;20.23;10.32;;;2.40;99.90;;;;;;4976304;28;20165;-80
2022/01/10 07:19:59;;;;;;;20.38;9.77;;;2.60;99.90;;;;;;4976415;28;20281;-78
2022/01/10 07:22:25;;;;;;;23.83;10.85;;;2.50;99.90;;;;;;4976541;28;20166;-79
2022/01/10 07:24:50;;;;;;;17.58;10.52;;;2.80;99.90;;;;;;4976389;28;20166;-78
2022/01/10 07:27:16;;;;;;;35.33;10.70;;;3.10;99.90;;;;;;4976087;28;20210;-80
2022/01/10 07:29:42;;;;;;;17.50;10.25;;;3.00;99.90;;;;;;4991035;28;20194;-78
2022/01/10 07:32:08;;;;;;;19.65;10.70;;;2.50;99.90;;;;;;4990874;28;20185;-79
2022/01/10 07:34:34;;;;;;;27.70;11.95;;;2.30;99.90;;;;;;4976077;28;20214;-80
2022/01/10 07:37:00;;;;;;;19.80;11.30;;;2.50;99.90;;;;;;4975482;28;20181;-81
2022/01/10 07:39:25;;;;;;;15.98;10.15;;;2.60;99.90;;;;;;4990477;28;20265;-81
2022/01/10 07:41:51;;;;;;;14.98;10.57;;;2.50;99.90;;;;;;4975793;28;20169;-83
2022/01/10 07:44:16;;;;;;;30.83;10.60;;;2.80;99.90;;;;;;4975826;28;20176;-81
2022/01/10 07:46:42;;;;;;;22.70;10.90;;;2.70;99.90;;;;;;4975932;28;20177;-83
2022/01/10 07:49:08;;;;;;;16.80;9.90;;;2.70;99.90;;;;;;4990243;28;20702;-81
2022/01/10 07:51:33;;;;;;;25.98;11.30;;;2.80;99.90;;;;;;4975624;28;20594;-81
2022/01/10 07:53:59;;;;;;;28.65;9.68;;;3.00;99.90;;;;;;4989580;28;20647;-81
2022/01/10 07:56:26;;;;;;;17.77;10.20;;;3.10;99.90;;;;;;4989185;28;20589;-82
2022/01/10 07:58:52;;;;;;;12.80;9.65;;;3.10;99.90;;;;;;4975728;28;20201;-82
2022/01/10 08:01:19;;;;;;;23.23;11.73;;;2.90;99.90;;;;;;4974945;28;20224;-79
2022/01/10 08:03:50;;;;;;;22.67;11.77;;;2.90;99.90;;;;;;4974922;28;20205;-81
2022/01/10 08:06:16;;;;;;;18.98;10.52;;;2.70;99.90;;;;;;4959902;28;20683;-80
2022/01/10 08:08:42;;;;;;;18.83;11.82;;;2.70;99.90;;;;;;4967893;28;20202;-81
2022/01/10 08:11:08;;;;;;;15.10;9.27;;;2.60;99.90;;;;;;4974282;28;20188;-81
2022/01/10 08:13:33;;;;;;;14.52;8.75;;;2.70;99.90;;;;;;4974237;28;20216;-83
2022/01/10 08:15:59;;;;;;;15.93;9.25;;;2.70;99.90;;;;;;4975257;28;20603;-81
2022/01/10 08:18:25;;;;;;;14.68;9.13;;;2.70;99.90;;;;;;4989953;28;20174;-80
2022/01/10 08:20:50;;;;;;;17.08;9.18;;;3.00;99.90;;;;;;4973670;28;20273;-81
2022/01/10 08:23:16;;;;;;;29.35;9.50;;;3.10;99.90;;;;;;4974251;28;20317;-80
2022/01/10 08:25:42;;;;;;;18.27;8.88;;;3.20;99.90;;;;;;4974537;28;20174;-81
2022/01/10 08:28:08;;;;;;;11.05;7.97;;;3.00;99.90;;;;;;4974314;28;20214;-79
2022/01/10 08:30:34;;;;;;;11.52;7.95;;;3.00;99.90;;;;;;4972878;28;20672;-80
2022/01/10 08:33:00;;;;;;;13.60;8.85;;;3.00;99.90;;;;;;4973201;28;20178;-79
2022/01/10 08:35:26;;;;;;;18.88;8.65;;;3.00;99.90;;;;;;4989444;28;20240;-80
2022/01/10 08:37:52;;;;;;;15.73;8.55;;;3.00;99.90;;;;;;4989040;28;20577;-79
2022/01/10 08:40:17;;;;;;;19.40;8.60;;;3.20;99.90;;;;;;4988871;28;20713;-80
2022/01/10 08:42:43;;;;;;;13.75;8.65;;;3.00;99.90;;;;;;4988683;28;20174;-80
2022/01/10 08:45:09;;;;;;;17.02;9.20;;;2.80;99.90;;;;;;4974154;28;20174;-81
2022/01/10 08:47:36;;;;;;;13.13;8.80;;;2.30;99.90;;;;;;4973949;28;20697;-80
2022/01/10 08:50:04;;;;;;;16.92;9.88;;;2.50;99.90;;;;;;4988881;28;20182;-80
2022/01/10 08:52:30;;;;;;;15.02;8.70;;;2.50;99.90;;;;;;4973703;28;20256;-79
2022/01/10 08:54:55;;;;;;;32.75;9.18;;;2.80;99.90;;;;;;4990975;28;20787;-79
2022/01/10 08:57:21;;;;;;;16.63;9.90;;;2.80;99.90;;;;;;4982048;28;20166;-79
2022/01/10 08:59:47;;;;;;;19.60;9.70;;;3.10;99.90;;;;;;4974252;28;20284;-80
2022/01/10 09:02:12;;;;;;;25.85;9.98;;;3.10;99.90;;;;;;4972638;28;20212;-80
2022/01/10 09:04:39;;;;;;;15.75;9.75;;;2.90;99.90;;;;;;4974691;28;20628;-80
2022/01/10 09:07:08;;;;;;;16.58;9.77;;;3.10;99.90;;;;;;4992767;28;20264;-79
2022/01/10 09:09:34;;;;;;;14.23;9.40;;;2.90;99.90;;;;;;4970339;28;20194;-80
2022/01/10 09:11:59;;;;;;;19.92;8.90;;;3.20;99.90;;;;;;4987755;28;20180;-79
2022/01/10 09:14:25;;;;;;;15.00;8.50;;;3.40;99.90;;;;;;4974047;28;20253;-82
2022/01/10 09:16:51;;;;;;;13.43;8.40;;;3.30;99.90;;;;;;4988959;28;20174;-79
2022/01/10 09:19:16;;;;;;;19.20;8.88;;;3.50;99.90;;;;;;4973275;28;20220;-79
2022/01/10 09:21:42;;;;;;;17.50;9.52;;;3.30;99.90;;;;;;4988248;28;20209;-76
2022/01/10 09:24:08;;;;;;;14.13;8.05;;;3.50;99.90;;;;;;4972201;28;20170;-77
2022/01/10 09:26:34;;;;;;;17.52;10.40;;;3.60;99.90;;;;;;4972547;28;20170;-78
2022/01/10 09:28:59;;;;;;;19.25;9.25;;;3.20;99.90;;;;;;4974498;28;20185;-78
2022/01/10 09:31:26;;;;;;;15.75;8.77;;;3.20;99.90;;;;;;4973818;28;20190;-78
2022/01/10 09:33:54;;;;;;;15.27;9.43;;;3.40;99.90;;;;;;4973813;28;20166;-78
2022/01/10 09:36:21;;;;;;;15.52;9.93;;;3.30;99.90;;;;;;4972927;28;20264;-78
2022/01/10 09:38:47;;;;;;;13.75;8.10;;;3.50;99.90;;;;;;4974159;28;20172;-78
2022/01/10 09:41:12;;;;;;;17.05;8.32;;;3.50;99.90;;;;;;4973689;28;20248;-78
2022/01/10 09:43:38;;;;;;;16.45;8.43;;;3.40;99.90;;;;;;4973159;28;20170;-79
2022/01/10 09:46:04;;;;;;;13.18;8.10;;;3.40;99.90;;;;;;4973843;28;20165;-78
2022/01/10 09:48:30;;;;;;;14.25;8.23;;;3.30;99.90;;;;;;4973304;28;20288;-78
2022/01/10 09:50:55;;;;;;;16.48;8.10;;;3.20;99.90;;;;;;4973173;28;20623;-78
2022/01/10 09:53:21;;;;;;;19.13;8.98;;;3.30;99.90;;;;;;4973638;28;20646;-77
2022/01/10 09:55:48;;;;;;;23.02;8.65;;;3.20;99.90;;;;;;4973586;28;20166;-78
2022/01/10 09:58:14;;;;;;;15.75;8.68;;;3.30;99.90;;;;;;4973554;28;20173;-77
2022/01/10 10:00:40;;;;;;;12.38;7.95;;;3.50;99.90;;;;;;4972842;28;20613;-79
2022/01/10 10:03:06;;;;;;;11.55;8.52;;;3.40;99.90;;;;;;4973107;28;20169;-79
2022/01/10 10:05:32;;;;;;;14.75;7.90;;;3.60;99.90;;;;;;4988067;28;20176;-77
2022/01/10 10:07:58;;;;;;;16.20;7.65;;;3.50;99.90;;;;;;4972539;28;20209;-79
2022/01/10 10:10:27;;;;;;;12.57;8.68;;;3.30;99.90;;;;;;4972650;28;20190;-80
2022/01/10 10:12:54;;;;;;;15.48;8.27;;;3.60;99.90;;;;;;4972833;28;20203;-78
2022/01/10 10:15:26;;;;;;;13.20;7.18;;;3.70;99.90;;;;;;4972966;28;20257;-77
2022/01/10 10:17:52;;;;;;;15.23;8.25;;;3.90;99.90;;;;;;4972707;28;20209;-78
2022/01/10 10:20:22;;;;;;;12.90;8.10;;;3.60;99.90;;;;;;4970337;28;20297;-78
2022/01/10 10:22:50;;;;;;;38.13;9.43;;;3.60;99.90;;;;;;4973020;28;20205;-78
2022/01/10 10:25:17;;;;;;;14.20;8.40;;;3.50;99.90;;;;;;4971256;28;20188;-78
2022/01/10 10:27:46;;;;;;;16.80;7.63;;;3.50;99.90;;;;;;4973089;28;20264;-78
2022/01/10 10:30:23;;;;;;;12.15;8.05;;;3.70;99.90;;;;;;4977009;28;20239;-78
2022/01/10 10:32:50;;;;;;;20.35;8.52;;;3.60;99.90;;;;;;4991904;28;20179;-78
2022/01/10 10:35:16;;;;;;;12.07;7.85;;;3.60;99.90;;;;;;4991621;28;20228;-78
2022/01/10 10:37:44;;;;;;;11.73;8.55;;;3.70;99.90;;;;;;4991742;28;20203;-78
2022/01/10 10:40:14;;;;;;;13.23;7.57;;;3.80;99.90;;;;;;4991841;28;20194;-78
2022/01/10 10:42:41;;;;;;;10.02;8.27;;;3.90;99.90;;;;;;4992413;28;20524;-78
2022/01/10 10:45:10;;;;;;;9.48;7.05;;;4.10;99.90;;;;;;4991766;28;20157;-78
2022/01/10 10:47:38;;;;;;;11.57;7.80;;;4.00;99.90;;;;;;4983840;28;20268;-79
2022/01/10 10:50:06;;;;;;;12.82;7.00;;;3.90;99.90;;;;;;4973276;28;20193;-77
2022/01/10 10:52:33;;;;;;;11.63;7.22;;;3.80;99.90;;;;;;4973242;28;20185;-78
2022/01/10 10:55:07;;;;;;;11.05;7.43;;;3.60;99.90;;;;;;4972838;28;20279;-81
2022/01/10 10:57:32;;;;;;;11.65;8.10;;;3.70;99.90;;;;;;4972281;28;20185;-78
2022/01/10 11:00:04;;;;;;;10.23;7.57;;;3.60;99.90;;;;;;4974818;28;20732;-78
2022/01/10 11:02:30;;;;;;;8.38;6.82;;;3.70;99.90;;;;;;4972950;28;20265;-79
2022/01/10 11:04:56;;;;;;;15.38;9.80;;;3.80;99.90;;;;;;4973239;28;20249;-78
2022/01/10 11:07:24;;;;;;;9.98;8.27;;;4.00;99.90;;;;;;4987752;28;20244;-78
2022/01/10 11:09:50;;;;;;;19.90;9.23;;;4.30;99.90;;;;;;4972861;28;20278;-78
2022/01/10 11:12:21;;;;;;;15.65;9.93;;;4.40;99.90;;;;;;4972613;28;20763;-83
2022/01/10 11:14:47;;;;;;;18.25;9.15;;;4.70;99.90;;;;;;4972230;28;20170;-80
2022/01/10 11:17:20;;;;;;;12.50;8.57;;;4.40;99.90;;;;;;4972733;28;20330;-80
2022/01/10 11:20:14;;;;;;;11.88;8.77;;;4.40;99.90;;;;;;4971468;28;20189;-79
2022/01/10 11:22:41;;;;;;;13.30;9.07;;;4.20;99.90;;;;;;4971428;28;20235;-79
2022/01/10 11:25:21;;;;;;;10.40;8.55;;;4.30;99.90;;;;;;4973021;28;20224;-79
2022/01/10 11:27:48;;;;;;;13.25;9.20;;;4.40;99.90;;;;;;4972115;28;20251;-79
2022/01/10 11:30:26;;;;;;;18.20;9.45;;;4.40;99.90;;;;;;4972647;28;20209;-83
2022/01/10 11:32:56;;;;;;;12.40;8.57;;;4.40;99.90;;;;;;4976533;28;20539;-77
2022/01/10 11:35:26;;;;;;;14.52;8.55;;;4.30;99.90;;;;;;4976606;28;20166;-79
2022/01/10 11:37:52;;;;;;;11.52;8.68;;;4.40;99.90;;;;;;4976765;28;20750;-79
2022/01/10 11:40:19;;;;;;;17.45;9.25;;;4.30;99.90;;;;;;4975902;28;20194;-79
2022/01/10 11:42:46;;;;;;;13.80;9.07;;;4.20;99.90;;;;;;4976263;28;20257;-80
2022/01/10 11:45:14;;;;;;;15.15;8.10;;;4.00;99.90;;;;;;4976611;28;20181;-80
2022/01/10 11:48:11;;;;;;;11.98;7.85;;;4.20;99.90;;;;;;4976192;28;20237;-79
2022/01/10 11:50:42;;;;;;;14.13;8.98;;;4.20;99.90;;;;;;4973435;28;20206;-79
2022/01/10 11:53:09;;;;;;;17.40;8.15;;;4.20;99.90;;;;;;4975858;28;20531;-79
2022/01/10 11:55:55;;;;;;;12.15;8.55;;;3.90;99.90;;;;;;4976243;28;20574;-80
2022/01/10 11:58:23;;;;;;;15.50;8.30;;;3.70;99.90;;;;;;4976392;28;20177;-80
2022/01/10 12:00:51;;;;;;;12.70;9.52;;;3.70;99.90;;;;;;4975809;28;20178;-80
2022/01/10 12:03:20;;;;;;;12.82;8.70;;;3.90;99.90;;;;;;4975789;28;20174;-79
2022/01/10 12:05:46;;;;;;;16.25;10.38;;;4.00;99.90;;;;;;4974799;28;20693;-79
2022/01/10 12:08:12;;;;;;;14.63;8.63;;;3.90;99.90;;;;;;4975971;28;20580;-79
2022/01/10 12:10:39;;;;;;;17.30;10.15;;;4.10;99.90;;;;;;4976096;28;20200;-79
2022/01/10 12:13:10;;;;;;;10.50;9.15;;;4.00;99.90;;;;;;4976107;28;20257;-78
2022/01/10 12:15:37;;;;;;;14.82;9.55;;;4.20;99.90;;;;;;4991012;28;20534;-78
2022/01/10 12:18:04;;;;;;;15.20;9.70;;;4.40;99.90;;;;;;4976203;28;20843;-78
2022/01/10 12:20:30;;;;;;;16.63;9.07;;;4.70;99.90;;;;;;4975872;28;20549;-79
2022/01/10 12:22:57;;;;;;;15.50;9.68;;;4.60;99.90;;;;;;4975916;28;20233;-78
2022/01/10 12:25:23;;;;;;;17.00;9.85;;;4.70;99.90;;;;;;4975619;28;20237;-78
2022/01/10 12:27:51;;;;;;;16.67;9.75;;;4.50;99.90;;;;;;4975357;28;20205;-78
2022/01/10 12:30:18;;;;;;;20.60;9.85;;;4.60;99.90;;;;;;4975484;28;20194;-78
2022/01/10 12:32:44;;;;;;;19.20;10.13;;;4.50;99.90;;;;;;4975791;28;20694;-79
2022/01/10 12:35:10;;;;;;;19.70;9.20;;;4.00;99.90;;;;;;4975569;28;20213;-79
2022/01/10 12:37:37;;;;;;;16.00;10.65;;;3.70;99.90;;;;;;4975202;28;20216;-78
2022/01/10 12:40:06;;;;;;;15.00;10.30;;;3.90;99.90;;;;;;4975321;28;21293;-79
2022/01/10 12:42:32;;;;;;;11.98;9.65;;;4.40;99.90;;;;;;4974799;28;20204;-81
2022/01/10 12:44:58;;;;;;;20.05;10.13;;;4.40;99.90;;;;;;4990236;28;20527;-81
2022/01/10 12:47:24;;;;;;;18.55;11.00;;;4.20;99.90;;;;;;4975108;28;20232;-80
2022/01/10 12:49:51;;;;;;;14.30;9.40;;;4.30;99.90;;;;;;4975665;28;20190;-83
2022/01/10 12:52:16;;;;;;;15.88;10.52;;;4.30;99.90;;;;;;4974966;28;20172;-81
2022/01/10 12:54:42;;;;;;;12.20;9.15;;;4.10;99.90;;;;;;4975367;28;20173;-82